KEBS

Details ICAO KEBS
Name WEBSTER CITY MUNI
Region United States
Timezone America/Chicago (UTC-5.0)
Plans Departing 2
Arriving 1
Stats Elevation 1,121 ft / 342 m (AMSL)
Location 42.436794° -93.868713°
Runways 2
Magnetic Variation 0.988° E
Sunrise 2017-03-24 12:12:31 UTC / 2017-03-24 07:12:31 Local
Sunset 2017-03-25 00:33:13 UTC / 2017-03-24 19:33:13 Local
Advertisement - Login to hide

Runways

ID Width Length Bearing (true) Bearing (mag) Surface Threshold Offset Overrun Length
05 90 ft / 27 m 2,705 ft / 824 m 47.58° 46.59° Grass 0 ft / 0 m 0 ft / 0 m
14 75 ft / 23 m 4,007 ft / 1,221 m 144.08° 143.09° Concrete 0 ft / 0 m 0 ft / 0 m
23 90 ft / 27 m 2,705 ft / 824 m 227.58° 226.59° Grass 0 ft / 0 m 0 ft / 0 m
32 75 ft / 23 m 4,007 ft / 1,221 m 324.08° 323.09° Concrete 0 ft / 0 m 0 ft / 0 m

Map

Weather

Temperature
Clouds and Precipitation
Forecast for 2017-03-24 12:00 UTC. Updated 40 minutes ago
Winds

METAR

KEBS 241155Z AUTO 15007KT 10SM SCT060 08/06 A2973 RMK AO2

TAF

Not found

Frequencies

Recorded 127.82 MHz AWOS 3
Unicom 122.80 MHz CTAF/UNICOM
Warning: Do not use this data for real-world aviation or navigation. No guarantee of current accuracy is given.